sensor_id;sensor_type;location;lat;lon;timestamp;P1;durP1;ratioP1;P2;durP2;ratioP2
75456;SDS011;64036;48.266;14.192;2023-09-30T00:02:14;8.20;;;5.30;;
75456;SDS011;64036;48.266;14.192;2023-09-30T00:04:40;12.40;;;5.40;;
75456;SDS011;64036;48.266;14.192;2023-09-30T00:07:06;10.30;;;6.40;;
75456;SDS011;64036;48.266;14.192;2023-09-30T00:09:32;12.90;;;7.30;;
75456;SDS011;64036;48.266;14.192;2023-09-30T00:11:57;13.60;;;6.80;;
75456;SDS011;64036;48.266;14.192;2023-09-30T00:14:23;10.00;;;6.50;;
75456;SDS011;64036;48.266;14.192;2023-09-30T00:16:48;10.10;;;5.90;;
75456;SDS011;64036;48.266;14.192;2023-09-30T00:19:16;8.80;;;5.30;;
75456;SDS011;64036;48.266;14.192;2023-09-30T00:21:42;10.80;;;5.60;;
75456;SDS011;64036;48.266;14.192;2023-09-30T00:24:07;9.50;;;5.70;;
75456;SDS011;64036;48.266;14.192;2023-09-30T00:26:33;7.80;;;4.90;;
75456;SDS011;64036;48.266;14.192;2023-09-30T00:28:59;9.00;;;5.10;;
75456;SDS011;64036;48.266;14.192;2023-09-30T00:31:25;8.00;;;4.90;;
75456;SDS011;64036;48.266;14.192;2023-09-30T00:33:50;10.00;;;4.80;;
75456;SDS011;64036;48.266;14.192;2023-09-30T00:36:16;7.60;;;5.20;;
75456;SDS011;64036;48.266;14.192;2023-09-30T00:38:42;7.30;;;5.00;;
75456;SDS011;64036;48.266;14.192;2023-09-30T00:41:08;7.90;;;4.30;;
75456;SDS011;64036;48.266;14.192;2023-09-30T00:43:34;7.20;;;4.50;;
75456;SDS011;64036;48.266;14.192;2023-09-30T00:48:47;8.80;;;4.90;;
75456;SDS011;64036;48.266;14.192;2023-09-30T00:51:17;8.00;;;5.20;;
75456;SDS011;64036;48.266;14.192;2023-09-30T00:53:44;7.10;;;4.90;;
75456;SDS011;64036;48.266;14.192;2023-09-30T00:56:10;7.70;;;4.70;;
75456;SDS011;64036;48.266;14.192;2023-09-30T00:58:38;8.20;;;5.00;;
75456;SDS011;64036;48.266;14.192;2023-09-30T01:01:04;9.50;;;5.10;;
75456;SDS011;64036;48.266;14.192;2023-09-30T01:03:30;8.40;;;5.50;;
75456;SDS011;64036;48.266;14.192;2023-09-30T01:05:56;6.90;;;4.50;;
75456;SDS011;64036;48.266;14.192;2023-09-30T01:08:22;11.10;;;5.20;;
75456;SDS011;64036;48.266;14.192;2023-09-30T01:10:48;8.50;;;5.10;;
75456;SDS011;64036;48.266;14.192;2023-09-30T01:13:14;7.90;;;4.60;;
75456;SDS011;64036;48.266;14.192;2023-09-30T01:15:39;8.30;;;5.00;;
75456;SDS011;64036;48.266;14.192;2023-09-30T01:18:05;9.40;;;5.20;;
75456;SDS011;64036;48.266;14.192;2023-09-30T01:20:32;7.10;;;4.50;;
75456;SDS011;64036;48.266;14.192;2023-09-30T01:22:57;7.60;;;5.20;;
75456;SDS011;64036;48.266;14.192;2023-09-30T01:25:24;7.30;;;4.60;;
75456;SDS011;64036;48.266;14.192;2023-09-30T01:27:50;9.40;;;5.00;;
75456;SDS011;64036;48.266;14.192;2023-09-30T01:30:19;7.30;;;4.80;;
75456;SDS011;64036;48.266;14.192;2023-09-30T01:32:47;10.10;;;5.50;;
75456;SDS011;64036;48.266;14.192;2023-09-30T01:35:13;7.90;;;5.20;;
75456;SDS011;64036;48.266;14.192;2023-09-30T01:37:39;8.50;;;5.40;;
75456;SDS011;64036;48.266;14.192;2023-09-30T01:40:06;8.10;;;5.30;;
75456;SDS011;64036;48.266;14.192;2023-09-30T01:42:33;9.10;;;5.60;;
75456;SDS011;64036;48.266;14.192;2023-09-30T01:44:59;11.00;;;5.70;;
75456;SDS011;64036;48.266;14.192;2023-09-30T01:47:25;9.80;;;5.70;;
75456;SDS011;64036;48.266;14.192;2023-09-30T01:49:50;10.00;;;5.50;;
75456;SDS011;64036;48.266;14.192;2023-09-30T01:52:16;11.60;;;5.90;;
75456;SDS011;64036;48.266;14.192;2023-09-30T01:54:41;10.00;;;5.80;;
75456;SDS011;64036;48.266;14.192;2023-09-30T01:57:07;9.50;;;5.10;;
75456;SDS011;64036;48.266;14.192;2023-09-30T01:59:33;10.70;;;5.40;;
75456;SDS011;64036;48.266;14.192;2023-09-30T02:02:00;14.30;;;5.80;;
75456;SDS011;64036;48.266;14.192;2023-09-30T02:04:25;11.50;;;5.90;;
75456;SDS011;64036;48.266;14.192;2023-09-30T02:06:51;11.60;;;6.40;;
75456;SDS011;64036;48.266;14.192;2023-09-30T02:09:17;11.30;;;5.80;;
75456;SDS011;64036;48.266;14.192;2023-09-30T02:11:43;12.20;;;6.00;;
75456;SDS011;64036;48.266;14.192;2023-09-30T02:14:09;11.50;;;5.60;;
75456;SDS011;64036;48.266;14.192;2023-09-30T02:16:38;11.40;;;6.00;;
75456;SDS011;64036;48.266;14.192;2023-09-30T02:19:04;11.40;;;5.90;;
75456;SDS011;64036;48.266;14.192;2023-09-30T02:21:30;10.70;;;5.80;;
75456;SDS011;64036;48.266;14.192;2023-09-30T02:23:55;11.00;;;5.60;;
75456;SDS011;64036;48.266;14.192;2023-09-30T02:26:21;11.10;;;5.50;;
75456;SDS011;64036;48.266;14.192;2023-09-30T02:28:51;12.10;;;6.00;;
75456;SDS011;64036;48.266;14.192;2023-09-30T02:31:18;10.30;;;5.60;;
75456;SDS011;64036;48.266;14.192;2023-09-30T02:33:44;11.20;;;5.80;;
75456;SDS011;64036;48.266;14.192;2023-09-30T02:36:10;10.10;;;6.10;;
75456;SDS011;64036;48.266;14.192;2023-09-30T02:38:37;10.30;;;4.90;;
75456;SDS011;64036;48.266;14.192;2023-09-30T02:41:03;11.00;;;5.00;;
75456;SDS011;64036;48.266;14.192;2023-09-30T02:43:29;12.50;;;5.90;;
75456;SDS011;64036;48.266;14.192;2023-09-30T02:45:55;12.70;;;6.30;;
75456;SDS011;64036;48.266;14.192;2023-09-30T02:48:20;13.00;;;6.10;;
75456;SDS011;64036;48.266;14.192;2023-09-30T02:50:46;16.10;;;6.50;;
75456;SDS011;64036;48.266;14.192;2023-09-30T02:53:12;15.90;;;6.70;;
75456;SDS011;64036;48.266;14.192;2023-09-30T02:55:39;17.40;;;7.30;;
75456;SDS011;64036;48.266;14.192;2023-09-30T02:58:06;16.60;;;6.50;;
75456;SDS011;64036;48.266;14.192;2023-09-30T03:00:35;15.50;;;7.00;;
75456;SDS011;64036;48.266;14.192;2023-09-30T03:03:05;21.00;;;7.30;;
75456;SDS011;64036;48.266;14.192;2023-09-30T03:05:31;19.10;;;7.80;;
75456;SDS011;64036;48.266;14.192;2023-09-30T03:08:00;17.80;;;7.10;;
75456;SDS011;64036;48.266;14.192;2023-09-30T03:10:26;16.50;;;7.30;;
75456;SDS011;64036;48.266;14.192;2023-09-30T03:12:53;18.30;;;7.10;;
75456;SDS011;64036;48.266;14.192;2023-09-30T03:15:19;19.30;;;7.40;;
75456;SDS011;64036;48.266;14.192;2023-09-30T03:17:45;17.10;;;6.40;;
75456;SDS011;64036;48.266;14.192;2023-09-30T03:20:12;21.60;;;7.80;;
75456;SDS011;64036;48.266;14.192;2023-09-30T03:22:42;14.90;;;6.50;;
75456;SDS011;64036;48.266;14.192;2023-09-30T03:25:09;18.50;;;7.40;;
75456;SDS011;64036;48.266;14.192;2023-09-30T03:27:37;17.60;;;7.10;;
75456;SDS011;64036;48.266;14.192;2023-09-30T03:30:07;19.20;;;7.50;;
75456;SDS011;64036;48.266;14.192;2023-09-30T03:32:34;17.80;;;6.50;;
75456;SDS011;64036;48.266;14.192;2023-09-30T03:35:07;16.40;;;6.70;;
75456;SDS011;64036;48.266;14.192;2023-09-30T03:37:39;14.80;;;5.90;;
75456;SDS011;64036;48.266;14.192;2023-09-30T03:40:07;16.10;;;6.70;;
75456;SDS011;64036;48.266;14.192;2023-09-30T03:42:53;18.20;;;7.40;;
75456;SDS011;64036;48.266;14.192;2023-09-30T03:45:19;16.40;;;7.00;;
75456;SDS011;64036;48.266;14.192;2023-09-30T03:47:45;19.20;;;6.60;;
75456;SDS011;64036;48.266;14.192;2023-09-30T03:50:13;16.90;;;6.60;;
75456;SDS011;64036;48.266;14.192;2023-09-30T03:52:39;18.20;;;7.20;;
75456;SDS011;64036;48.266;14.192;2023-09-30T03:55:12;14.80;;;6.20;;
75456;SDS011;64036;48.266;14.192;2023-09-30T03:57:38;14.30;;;6.20;;
75456;SDS011;64036;48.266;14.192;2023-09-30T04:00:04;18.00;;;6.70;;
75456;SDS011;64036;48.266;14.192;2023-09-30T04:02:41;19.90;;;7.10;;
75456;SDS011;64036;48.266;14.192;2023-09-30T04:05:08;15.90;;;6.40;;
75456;SDS011;64036;48.266;14.192;2023-09-30T04:07:39;18.50;;;7.10;;
75456;SDS011;64036;48.266;14.192;2023-09-30T04:10:05;15.90;;;6.10;;
75456;SDS011;64036;48.266;14.192;2023-09-30T04:12:31;17.60;;;6.50;;
75456;SDS011;64036;48.266;14.192;2023-09-30T04:14:58;16.50;;;6.40;;
75456;SDS011;64036;48.266;14.192;2023-09-30T04:17:24;17.60;;;6.70;;
75456;SDS011;64036;48.266;14.192;2023-09-30T04:19:49;14.40;;;5.80;;
75456;SDS011;64036;48.266;14.192;2023-09-30T04:22:18;16.30;;;6.10;;
75456;SDS011;64036;48.266;14.192;2023-09-30T04:24:45;15.30;;;6.50;;
75456;SDS011;64036;48.266;14.192;2023-09-30T04:27:11;17.60;;;7.30;;
75456;SDS011;64036;48.266;14.192;2023-09-30T04:29:36;15.70;;;6.20;;
75456;SDS011;64036;48.266;14.192;2023-09-30T04:32:03;14.80;;;5.90;;
75456;SDS011;64036;48.266;14.192;2023-09-30T04:34:30;15.00;;;5.30;;
75456;SDS011;64036;48.266;14.192;2023-09-30T04:36:56;14.70;;;6.10;;
75456;SDS011;64036;48.266;14.192;2023-09-30T04:39:21;15.90;;;6.40;;
75456;SDS011;64036;48.266;14.192;2023-09-30T04:41:47;18.80;;;6.50;;
75456;SDS011;64036;48.266;14.192;2023-09-30T04:44:14;15.10;;;5.90;;
75456;SDS011;64036;48.266;14.192;2023-09-30T04:46:39;14.60;;;6.00;;
75456;SDS011;64036;48.266;14.192;2023-09-30T04:49:09;18.00;;;6.80;;
75456;SDS011;64036;48.266;14.192;2023-09-30T04:51:34;14.70;;;6.60;;
75456;SDS011;64036;48.266;14.192;2023-09-30T04:54:01;16.70;;;6.40;;
75456;SDS011;64036;48.266;14.192;2023-09-30T04:56:27;16.80;;;6.70;;
75456;SDS011;64036;48.266;14.192;2023-09-30T04:58:53;13.30;;;5.80;;
75456;SDS011;64036;48.266;14.192;2023-09-30T05:01:19;15.90;;;5.60;;
75456;SDS011;64036;48.266;14.192;2023-09-30T05:03:45;15.50;;;6.30;;
75456;SDS011;64036;48.266;14.192;2023-09-30T05:06:14;16.30;;;6.60;;
75456;SDS011;64036;48.266;14.192;2023-09-30T05:08:41;15.70;;;6.60;;
75456;SDS011;64036;48.266;14.192;2023-09-30T05:11:07;17.40;;;6.60;;
75456;SDS011;64036;48.266;14.192;2023-09-30T05:13:32;15.20;;;6.50;;
75456;SDS011;64036;48.266;14.192;2023-09-30T05:15:59;17.00;;;6.70;;
75456;SDS011;64036;48.266;14.192;2023-09-30T05:18:25;13.70;;;6.20;;
75456;SDS011;64036;48.266;14.192;2023-09-30T05:20:51;15.70;;;5.90;;
75456;SDS011;64036;48.266;14.192;2023-09-30T05:23:16;14.30;;;6.10;;
75456;SDS011;64036;48.266;14.192;2023-09-30T05:25:44;13.10;;;5.20;;
75456;SDS011;64036;48.266;14.192;2023-09-30T05:28:09;15.80;;;5.70;;
75456;SDS011;64036;48.266;14.192;2023-09-30T05:30:37;16.50;;;6.00;;
75456;SDS011;64036;48.266;14.192;2023-09-30T05:33:03;18.00;;;6.30;;
75456;SDS011;64036;48.266;14.192;2023-09-30T05:35:29;18.70;;;6.20;;
75456;SDS011;64036;48.266;14.192;2023-09-30T05:37:57;15.90;;;6.20;;
75456;SDS011;64036;48.266;14.192;2023-09-30T05:40:24;16.20;;;7.00;;
75456;SDS011;64036;48.266;14.192;2023-09-30T05:45:26;17.30;;;5.90;;
75456;SDS011;64036;48.266;14.192;2023-09-30T05:47:53;15.60;;;5.90;;
75456;SDS011;64036;48.266;14.192;2023-09-30T05:50:21;17.20;;;6.70;;
75456;SDS011;64036;48.266;14.192;2023-09-30T05:52:52;15.20;;;5.80;;
75456;SDS011;64036;48.266;14.192;2023-09-30T05:55:18;15.30;;;5.60;;
75456;SDS011;64036;48.266;14.192;2023-09-30T05:57:51;15.40;;;6.00;;
75456;SDS011;64036;48.266;14.192;2023-09-30T06:00:20;14.90;;;5.60;;
75456;SDS011;64036;48.266;14.192;2023-09-30T06:02:50;16.40;;;6.10;;
75456;SDS011;64036;48.266;14.192;2023-09-30T06:05:17;14.00;;;6.20;;
75456;SDS011;64036;48.266;14.192;2023-09-30T06:07:48;16.80;;;6.60;;
75456;SDS011;64036;48.266;14.192;2023-09-30T06:10:14;17.10;;;6.80;;
75456;SDS011;64036;48.266;14.192;2023-09-30T06:12:50;14.30;;;6.40;;
75456;SDS011;64036;48.266;14.192;2023-09-30T06:15:21;13.80;;;5.70;;
75456;SDS011;64036;48.266;14.192;2023-09-30T06:17:57;15.10;;;6.50;;
75456;SDS011;64036;48.266;14.192;2023-09-30T06:20:26;14.40;;;5.90;;
75456;SDS011;64036;48.266;14.192;2023-09-30T06:22:52;16.40;;;6.50;;
75456;SDS011;64036;48.266;14.192;2023-09-30T06:25:21;17.20;;;6.50;;
75456;SDS011;64036;48.266;14.192;2023-09-30T06:27:48;14.50;;;6.10;;
75456;SDS011;64036;48.266;14.192;2023-09-30T06:30:16;16.20;;;5.90;;
75456;SDS011;64036;48.266;14.192;2023-09-30T06:32:43;14.70;;;5.70;;
75456;SDS011;64036;48.266;14.192;2023-09-30T06:35:09;17.50;;;6.70;;
75456;SDS011;64036;48.266;14.192;2023-09-30T06:37:38;14.20;;;5.90;;
75456;SDS011;64036;48.266;14.192;2023-09-30T06:40:09;16.60;;;6.20;;
75456;SDS011;64036;48.266;14.192;2023-09-30T06:42:37;18.20;;;7.10;;
75456;SDS011;64036;48.266;14.192;2023-09-30T06:45:05;14.70;;;6.10;;
75456;SDS011;64036;48.266;14.192;2023-09-30T06:47:36;17.10;;;7.00;;
75456;SDS011;64036;48.266;14.192;2023-09-30T06:50:04;15.50;;;6.40;;
75456;SDS011;64036;48.266;14.192;2023-09-30T06:52:38;15.50;;;6.90;;
75456;SDS011;64036;48.266;14.192;2023-09-30T06:55:06;17.40;;;7.80;;
75456;SDS011;64036;48.266;14.192;2023-09-30T06:57:34;19.10;;;7.40;;
75456;SDS011;64036;48.266;14.192;2023-09-30T07:00:04;14.20;;;7.00;;
75456;SDS011;64036;48.266;14.192;2023-09-30T07:02:33;15.70;;;7.20;;
75456;SDS011;64036;48.266;14.192;2023-09-30T07:04:59;16.50;;;7.10;;
75456;SDS011;64036;48.266;14.192;2023-09-30T07:07:25;16.50;;;7.20;;
75456;SDS011;64036;48.266;14.192;2023-09-30T07:09:51;15.00;;;6.80;;
75456;SDS011;64036;48.266;14.192;2023-09-30T07:12:17;15.10;;;6.10;;
75456;SDS011;64036;48.266;14.192;2023-09-30T07:14:42;12.20;;;5.50;;
75456;SDS011;64036;48.266;14.192;2023-09-30T07:17:08;14.90;;;6.10;;
75456;SDS011;64036;48.266;14.192;2023-09-30T07:19:34;15.30;;;6.70;;
75456;SDS011;64036;48.266;14.192;2023-09-30T07:21:59;13.60;;;5.70;;
75456;SDS011;64036;48.266;14.192;2023-09-30T07:24:25;15.40;;;6.00;;
75456;SDS011;64036;48.266;14.192;2023-09-30T07:26:51;15.70;;;6.40;;
75456;SDS011;64036;48.266;14.192;2023-09-30T07:29:16;14.70;;;6.50;;
75456;SDS011;64036;48.266;14.192;2023-09-30T07:31:42;12.70;;;5.90;;
75456;SDS011;64036;48.266;14.192;2023-09-30T07:34:08;14.40;;;6.30;;
75456;SDS011;64036;48.266;14.192;2023-09-30T07:36:33;13.90;;;6.10;;
75456;SDS011;64036;48.266;14.192;2023-09-30T07:38:59;15.20;;;6.50;;
75456;SDS011;64036;48.266;14.192;2023-09-30T07:41:34;15.90;;;6.60;;
75456;SDS011;64036;48.266;14.192;2023-09-30T07:44:00;13.90;;;5.70;;
75456;SDS011;64036;48.266;14.192;2023-09-30T07:46:25;16.90;;;6.90;;
75456;SDS011;64036;48.266;14.192;2023-09-30T07:48:51;16.20;;;6.60;;
75456;SDS011;64036;48.266;14.192;2023-09-30T07:51:17;18.40;;;6.50;;
75456;SDS011;64036;48.266;14.192;2023-09-30T07:53:43;13.10;;;6.00;;
75456;SDS011;64036;48.266;14.192;2023-09-30T07:56:09;15.50;;;6.40;;
75456;SDS011;64036;48.266;14.192;2023-09-30T07:58:34;13.20;;;5.40;;
75456;SDS011;64036;48.266;14.192;2023-09-30T08:01:00;12.90;;;5.50;;
75456;SDS011;64036;48.266;14.192;2023-09-30T08:03:26;14.60;;;6.00;;
75456;SDS011;64036;48.266;14.192;2023-09-30T08:05:52;16.60;;;6.30;;
75456;SDS011;64036;48.266;14.192;2023-09-30T08:08:18;13.20;;;6.00;;
75456;SDS011;64036;48.266;14.192;2023-09-30T08:10:44;14.50;;;6.20;;
75456;SDS011;64036;48.266;14.192;2023-09-30T08:13:09;14.00;;;5.60;;
75456;SDS011;64036;48.266;14.192;2023-09-30T08:15:35;13.20;;;5.70;;
75456;SDS011;64036;48.266;14.192;2023-09-30T08:18:03;13.40;;;5.80;;
75456;SDS011;64036;48.266;14.192;2023-09-30T08:20:31;11.00;;;5.00;;
75456;SDS011;64036;48.266;14.192;2023-09-30T08:22:56;11.60;;;5.80;;
75456;SDS011;64036;48.266;14.192;2023-09-30T08:25:22;12.40;;;5.70;;
75456;SDS011;64036;48.266;14.192;2023-09-30T08:27:48;10.40;;;4.80;;
75456;SDS011;64036;48.266;14.192;2023-09-30T08:30:15;11.80;;;5.30;;
75456;SDS011;64036;48.266;14.192;2023-09-30T08:32:41;12.80;;;6.00;;
75456;SDS011;64036;48.266;14.192;2023-09-30T08:35:07;13.20;;;5.70;;
75456;SDS011;64036;48.266;14.192;2023-09-30T08:37:34;12.40;;;5.30;;
75456;SDS011;64036;48.266;14.192;2023-09-30T08:40:00;9.90;;;5.00;;
75456;SDS011;64036;48.266;14.192;2023-09-30T08:42:27;13.00;;;5.80;;
75456;SDS011;64036;48.266;14.192;2023-09-30T08:44:59;10.20;;;5.30;;
75456;SDS011;64036;48.266;14.192;2023-09-30T08:47:28;10.70;;;4.90;;
75456;SDS011;64036;48.266;14.192;2023-09-30T08:49:54;11.50;;;5.50;;
75456;SDS011;64036;48.266;14.192;2023-09-30T08:52:26;14.10;;;5.80;;
75456;SDS011;64036;48.266;14.192;2023-09-30T08:54:51;12.90;;;5.90;;
75456;SDS011;64036;48.266;14.192;2023-09-30T08:57:18;10.60;;;5.40;;
75456;SDS011;64036;48.266;14.192;2023-09-30T08:59:46;8.70;;;4.60;;
75456;SDS011;64036;48.266;14.192;2023-09-30T09:02:15;11.80;;;5.50;;
75456;SDS011;64036;48.266;14.192;2023-09-30T09:04:41;11.20;;;5.40;;
75456;SDS011;64036;48.266;14.192;2023-09-30T09:07:06;11.60;;;5.80;;
75456;SDS011;64036;48.266;14.192;2023-09-30T09:09:32;12.70;;;5.60;;
75456;SDS011;64036;48.266;14.192;2023-09-30T09:11:58;11.50;;;5.60;;
75456;SDS011;64036;48.266;14.192;2023-09-30T09:14:40;10.60;;;5.30;;
75456;SDS011;64036;48.266;14.192;2023-09-30T09:17:07;12.20;;;5.80;;
75456;SDS011;64036;48.266;14.192;2023-09-30T09:19:34;10.20;;;5.50;;
75456;SDS011;64036;48.266;14.192;2023-09-30T09:22:01;11.60;;;5.60;;
75456;SDS011;64036;48.266;14.192;2023-09-30T09:24:31;10.80;;;5.00;;
75456;SDS011;64036;48.266;14.192;2023-09-30T09:29:34;11.70;;;5.20;;
75456;SDS011;64036;48.266;14.192;2023-09-30T09:32:12;10.50;;;5.00;;
75456;SDS011;64036;48.266;14.192;2023-09-30T09:34:40;11.10;;;5.10;;
75456;SDS011;64036;48.266;14.192;2023-09-30T09:39:50;8.80;;;4.40;;
75456;SDS011;64036;48.266;14.192;2023-09-30T09:42:32;9.40;;;4.70;;
75456;SDS011;64036;48.266;14.192;2023-09-30T09:45:03;10.30;;;4.90;;
75456;SDS011;64036;48.266;14.192;2023-09-30T09:49:58;11.50;;;4.90;;
75456;SDS011;64036;48.266;14.192;2023-09-30T09:52:25;9.90;;;5.20;;
75456;SDS011;64036;48.266;14.192;2023-09-30T09:54:51;9.20;;;4.40;;
75456;SDS011;64036;48.266;14.192;2023-09-30T09:57:18;10.80;;;5.10;;
75456;SDS011;64036;48.266;14.192;2023-09-30T09:59:45;10.60;;;4.30;;
75456;SDS011;64036;48.266;14.192;2023-09-30T10:02:15;10.10;;;4.60;;
75456;SDS011;64036;48.266;14.192;2023-09-30T10:04:47;12.00;;;5.20;;
75456;SDS011;64036;48.266;14.192;2023-09-30T10:07:25;10.60;;;5.20;;
75456;SDS011;64036;48.266;14.192;2023-09-30T10:09:53;9.80;;;4.60;;
75456;SDS011;64036;48.266;14.192;2023-09-30T10:12:23;12.10;;;5.50;;
75456;SDS011;64036;48.266;14.192;2023-09-30T10:14:51;11.00;;;5.00;;
75456;SDS011;64036;48.266;14.192;2023-09-30T10:17:17;10.60;;;4.90;;
75456;SDS011;64036;48.266;14.192;2023-09-30T10:20:09;11.60;;;5.10;;
75456;SDS011;64036;48.266;14.192;2023-09-30T10:22:35;13.30;;;5.60;;
75456;SDS011;64036;48.266;14.192;2023-09-30T10:25:01;12.40;;;5.50;;
75456;SDS011;64036;48.266;14.192;2023-09-30T10:27:59;12.70;;;5.50;;
75456;SDS011;64036;48.266;14.192;2023-09-30T10:30:25;12.30;;;5.40;;
75456;SDS011;64036;48.266;14.192;2023-09-30T10:35:21;9.80;;;5.10;;
75456;SDS011;64036;48.266;14.192;2023-09-30T10:40:50;12.60;;;5.40;;
75456;SDS011;64036;48.266;14.192;2023-09-30T10:43:39;15.50;;;6.90;;
75456;SDS011;64036;48.266;14.192;2023-09-30T10:46:30;13.30;;;6.40;;
75456;SDS011;64036;48.266;14.192;2023-09-30T10:49:17;15.40;;;7.00;;
75456;SDS011;64036;48.266;14.192;2023-09-30T10:51:43;16.90;;;7.40;;
75456;SDS011;64036;48.266;14.192;2023-09-30T10:54:12;16.30;;;7.60;;
75456;SDS011;64036;48.266;14.192;2023-09-30T10:56:38;16.10;;;7.30;;
75456;SDS011;64036;48.266;14.192;2023-09-30T10:59:04;15.30;;;7.10;;
75456;SDS011;64036;48.266;14.192;2023-09-30T11:01:34;16.80;;;7.30;;
75456;SDS011;64036;48.266;14.192;2023-09-30T11:04:02;19.20;;;7.90;;
75456;SDS011;64036;48.266;14.192;2023-09-30T11:06:30;16.90;;;7.70;;
75456;SDS011;64036;48.266;14.192;2023-09-30T11:08:58;17.60;;;7.50;;
75456;SDS011;64036;48.266;14.192;2023-09-30T11:11:48;16.50;;;7.30;;
75456;SDS011;64036;48.266;14.192;2023-09-30T11:14:29;17.00;;;7.50;;
75456;SDS011;64036;48.266;14.192;2023-09-30T11:17:03;16.30;;;6.80;;
75456;SDS011;64036;48.266;14.192;2023-09-30T11:19:36;17.30;;;7.90;;
75456;SDS011;64036;48.266;14.192;2023-09-30T11:22:03;17.50;;;7.60;;
75456;SDS011;64036;48.266;14.192;2023-09-30T11:24:29;16.80;;;7.00;;
75456;SDS011;64036;48.266;14.192;2023-09-30T11:26:56;15.30;;;7.40;;
75456;SDS011;64036;48.266;14.192;2023-09-30T11:29:22;15.90;;;7.70;;
75456;SDS011;64036;48.266;14.192;2023-09-30T11:31:50;17.50;;;7.20;;
75456;SDS011;64036;48.266;14.192;2023-09-30T11:34:19;14.10;;;6.10;;
75456;SDS011;64036;48.266;14.192;2023-09-30T11:36:49;14.50;;;6.30;;
75456;SDS011;64036;48.266;14.192;2023-09-30T11:39:23;14.70;;;7.00;;
75456;SDS011;64036;48.266;14.192;2023-09-30T11:41:53;14.80;;;6.60;;
75456;SDS011;64036;48.266;14.192;2023-09-30T11:44:20;14.80;;;6.40;;
75456;SDS011;64036;48.266;14.192;2023-09-30T11:46:51;13.70;;;6.30;;
75456;SDS011;64036;48.266;14.192;2023-09-30T11:49:38;13.60;;;6.00;;
75456;SDS011;64036;48.266;14.192;2023-09-30T11:52:07;13.10;;;6.00;;
75456;SDS011;64036;48.266;14.192;2023-09-30T11:54:42;12.10;;;5.10;;
75456;SDS011;64036;48.266;14.192;2023-09-30T11:57:14;13.00;;;6.00;;
75456;SDS011;64036;48.266;14.192;2023-09-30T11:59:41;13.90;;;6.20;;
75456;SDS011;64036;48.266;14.192;2023-09-30T12:02:12;13.30;;;5.70;;
75456;SDS011;64036;48.266;14.192;2023-09-30T12:04:43;15.80;;;6.40;;
75456;SDS011;64036;48.266;14.192;2023-09-30T12:07:10;13.10;;;6.10;;
75456;SDS011;64036;48.266;14.192;2023-09-30T12:09:37;13.70;;;6.10;;
75456;SDS011;64036;48.266;14.192;2023-09-30T12:12:05;12.80;;;5.40;;
75456;SDS011;64036;48.266;14.192;2023-09-30T12:14:35;12.70;;;5.40;;
75456;SDS011;64036;48.266;14.192;2023-09-30T12:17:00;13.30;;;5.50;;
75456;SDS011;64036;48.266;14.192;2023-09-30T12:19:26;12.60;;;5.70;;
75456;SDS011;64036;48.266;14.192;2023-09-30T12:21:52;11.30;;;5.20;;
75456;SDS011;64036;48.266;14.192;2023-09-30T12:24:18;13.50;;;5.40;;
75456;SDS011;64036;48.266;14.192;2023-09-30T12:29:20;12.10;;;5.30;;
75456;SDS011;64036;48.266;14.192;2023-09-30T12:31:51;14.60;;;5.90;;
75456;SDS011;64036;48.266;14.192;2023-09-30T12:34:17;13.20;;;5.40;;
75456;SDS011;64036;48.266;14.192;2023-09-30T12:36:43;12.60;;;4.90;;
75456;SDS011;64036;48.266;14.192;2023-09-30T12:39:10;16.10;;;5.30;;
75456;SDS011;64036;48.266;14.192;2023-09-30T12:41:41;13.50;;;5.50;;
75456;SDS011;64036;48.266;14.192;2023-09-30T12:44:07;12.40;;;5.20;;
75456;SDS011;64036;48.266;14.192;2023-09-30T12:46:34;12.30;;;5.10;;
75456;SDS011;64036;48.266;14.192;2023-09-30T12:49:03;11.80;;;5.00;;
75456;SDS011;64036;48.266;14.192;2023-09-30T12:51:29;12.30;;;5.40;;
75456;SDS011;64036;48.266;14.192;2023-09-30T12:53:56;14.40;;;5.50;;
75456;SDS011;64036;48.266;14.192;2023-09-30T12:56:23;12.00;;;5.10;;
75456;SDS011;64036;48.266;14.192;2023-09-30T12:58:49;12.50;;;5.50;;
75456;SDS011;64036;48.266;14.192;2023-09-30T13:01:15;13.00;;;5.10;;
75456;SDS011;64036;48.266;14.192;2023-09-30T13:03:44;12.90;;;5.50;;
75456;SDS011;64036;48.266;14.192;2023-09-30T13:06:10;13.20;;;5.70;;
75456;SDS011;64036;48.266;14.192;2023-09-30T13:08:36;14.60;;;5.80;;
75456;SDS011;64036;48.266;14.192;2023-09-30T13:11:02;13.10;;;5.60;;
75456;SDS011;64036;48.266;14.192;2023-09-30T13:13:29;12.60;;;5.50;;
75456;SDS011;64036;48.266;14.192;2023-09-30T13:15:57;12.70;;;5.80;;
75456;SDS011;64036;48.266;14.192;2023-09-30T13:18:23;13.30;;;5.50;;
75456;SDS011;64036;48.266;14.192;2023-09-30T13:20:49;12.50;;;5.30;;
75456;SDS011;64036;48.266;14.192;2023-09-30T13:23:14;12.90;;;5.50;;
75456;SDS011;64036;48.266;14.192;2023-09-30T13:25:40;11.90;;;5.40;;
75456;SDS011;64036;48.266;14.192;2023-09-30T13:28:05;11.50;;;5.00;;
75456;SDS011;64036;48.266;14.192;2023-09-30T13:30:31;11.60;;;5.00;;
75456;SDS011;64036;48.266;14.192;2023-09-30T13:32:57;14.50;;;5.60;;
75456;SDS011;64036;48.266;14.192;2023-09-30T13:35:23;10.80;;;4.70;;
75456;SDS011;64036;48.266;14.192;2023-09-30T13:37:49;14.00;;;5.60;;
75456;SDS011;64036;48.266;14.192;2023-09-30T13:40:15;13.60;;;5.70;;
75456;SDS011;64036;48.266;14.192;2023-09-30T13:42:40;15.90;;;6.20;;
75456;SDS011;64036;48.266;14.192;2023-09-30T13:45:07;22.10;;;5.60;;
75456;SDS011;64036;48.266;14.192;2023-09-30T13:47:34;17.20;;;5.70;;
75456;SDS011;64036;48.266;14.192;2023-09-30T13:50:01;13.20;;;6.20;;
75456;SDS011;64036;48.266;14.192;2023-09-30T13:52:29;12.70;;;5.00;;
75456;SDS011;64036;48.266;14.192;2023-09-30T13:54:55;13.30;;;5.20;;
75456;SDS011;64036;48.266;14.192;2023-09-30T13:57:21;14.20;;;5.80;;
75456;SDS011;64036;48.266;14.192;2023-09-30T13:59:47;13.80;;;5.80;;
75456;SDS011;64036;48.266;14.192;2023-09-30T14:02:12;9.90;;;4.50;;
75456;SDS011;64036;48.266;14.192;2023-09-30T14:04:38;11.40;;;4.90;;
75456;SDS011;64036;48.266;14.192;2023-09-30T14:07:04;10.10;;;3.90;;
75456;SDS011;64036;48.266;14.192;2023-09-30T14:09:31;9.60;;;4.00;;
75456;SDS011;64036;48.266;14.192;2023-09-30T14:11:57;10.80;;;4.10;;
75456;SDS011;64036;48.266;14.192;2023-09-30T14:14:24;8.80;;;3.60;;
75456;SDS011;64036;48.266;14.192;2023-09-30T14:16:51;13.70;;;4.70;;
75456;SDS011;64036;48.266;14.192;2023-09-30T14:19:17;13.70;;;4.30;;
75456;SDS011;64036;48.266;14.192;2023-09-30T14:21:43;9.90;;;3.60;;
75456;SDS011;64036;48.266;14.192;2023-09-30T14:24:11;8.70;;;3.40;;
75456;SDS011;64036;48.266;14.192;2023-09-30T14:26:36;8.90;;;3.60;;
75456;SDS011;64036;48.266;14.192;2023-09-30T14:29:03;8.40;;;3.20;;
75456;SDS011;64036;48.266;14.192;2023-09-30T14:31:29;8.50;;;3.70;;
75456;SDS011;64036;48.266;14.192;2023-09-30T14:33:55;9.00;;;3.80;;
75456;SDS011;64036;48.266;14.192;2023-09-30T14:36:20;8.60;;;3.80;;
75456;SDS011;64036;48.266;14.192;2023-09-30T14:38:48;11.60;;;4.40;;
75456;SDS011;64036;48.266;14.192;2023-09-30T14:41:15;9.50;;;3.80;;
75456;SDS011;64036;48.266;14.192;2023-09-30T14:43:41;9.40;;;3.90;;
75456;SDS011;64036;48.266;14.192;2023-09-30T14:46:07;10.30;;;4.00;;
75456;SDS011;64036;48.266;14.192;2023-09-30T14:48:35;8.30;;;3.50;;